sensor_id;sensor_type;location;lat;lon;timestamp;P1;durP1;ratioP1;P2;durP2;ratioP2
25437;SDS011;13364;49.084;9.978;2023-06-10T00:00:38;6.15;;;4.55;;
25437;SDS011;13364;49.084;9.978;2023-06-10T00:03:07;5.15;;;4.57;;
25437;SDS011;13364;49.084;9.978;2023-06-10T00:05:39;5.05;;;4.53;;
25437;SDS011;13364;49.084;9.978;2023-06-10T00:08:06;4.82;;;4.38;;
25437;SDS011;13364;49.084;9.978;2023-06-10T00:10:37;5.60;;;4.90;;
25437;SDS011;13364;49.084;9.978;2023-06-10T00:13:06;5.22;;;4.57;;
25437;SDS011;13364;49.084;9.978;2023-06-10T00:15:37;7.45;;;4.90;;
25437;SDS011;13364;49.084;9.978;2023-06-10T00:18:04;5.72;;;4.63;;
25437;SDS011;13364;49.084;9.978;2023-06-10T00:20:32;4.95;;;4.47;;
25437;SDS011;13364;49.084;9.978;2023-06-10T00:22:59;5.55;;;4.93;;
25437;SDS011;13364;49.084;9.978;2023-06-10T00:25:27;5.50;;;4.90;;
25437;SDS011;13364;49.084;9.978;2023-06-10T00:27:55;5.13;;;4.63;;
25437;SDS011;13364;49.084;9.978;2023-06-10T00:30:22;6.18;;;4.60;;
25437;SDS011;13364;49.084;9.978;2023-06-10T00:32:49;5.18;;;4.65;;
25437;SDS011;13364;49.084;9.978;2023-06-10T00:35:16;7.25;;;4.40;;
25437;SDS011;13364;49.084;9.978;2023-06-10T00:37:43;5.32;;;4.60;;
25437;SDS011;13364;49.084;9.978;2023-06-10T00:40:10;5.00;;;4.50;;
25437;SDS011;13364;49.084;9.978;2023-06-10T00:42:38;6.95;;;4.70;;
25437;SDS011;13364;49.084;9.978;2023-06-10T00:45:05;6.13;;;5.00;;
25437;SDS011;13364;49.084;9.978;2023-06-10T00:47:35;6.68;;;4.75;;
25437;SDS011;13364;49.084;9.978;2023-06-10T00:50:02;5.60;;;5.10;;
25437;SDS011;13364;49.084;9.978;2023-06-10T00:52:30;5.85;;;4.82;;
25437;SDS011;13364;49.084;9.978;2023-06-10T00:54:58;6.85;;;4.85;;
25437;SDS011;13364;49.084;9.978;2023-06-10T00:57:26;5.97;;;4.50;;
25437;SDS011;13364;49.084;9.978;2023-06-10T00:59:53;6.15;;;4.30;;
25437;SDS011;13364;49.084;9.978;2023-06-10T01:02:20;5.10;;;4.60;;
25437;SDS011;13364;49.084;9.978;2023-06-10T01:04:48;5.75;;;5.03;;
25437;SDS011;13364;49.084;9.978;2023-06-10T01:15:03;7.00;;;4.82;;
25437;SDS011;13364;49.084;9.978;2023-06-10T01:17:31;6.05;;;5.15;;
25437;SDS011;13364;49.084;9.978;2023-06-10T01:20:00;8.37;;;5.07;;
25437;SDS011;13364;49.084;9.978;2023-06-10T01:22:30;6.47;;;4.97;;
25437;SDS011;13364;49.084;9.978;2023-06-10T01:25:03;6.35;;;5.13;;
25437;SDS011;13364;49.084;9.978;2023-06-10T01:27:33;5.82;;;5.10;;
25437;SDS011;13364;49.084;9.978;2023-06-10T01:30:11;5.85;;;5.22;;
25437;SDS011;13364;49.084;9.978;2023-06-10T01:32:45;7.15;;;5.80;;
25437;SDS011;13364;49.084;9.978;2023-06-10T01:35:17;5.75;;;5.10;;
25437;SDS011;13364;49.084;9.978;2023-06-10T01:37:46;5.05;;;4.55;;
25437;SDS011;13364;49.084;9.978;2023-06-10T01:40:16;5.97;;;5.40;;
25437;SDS011;13364;49.084;9.978;2023-06-10T01:42:43;5.47;;;4.97;;
25437;SDS011;13364;49.084;9.978;2023-06-10T01:45:11;6.15;;;5.50;;
25437;SDS011;13364;49.084;9.978;2023-06-10T01:47:39;6.53;;;5.82;;
25437;SDS011;13364;49.084;9.978;2023-06-10T01:53:54;7.55;;;5.60;;
25437;SDS011;13364;49.084;9.978;2023-06-10T01:56:21;6.72;;;5.57;;
25437;SDS011;13364;49.084;9.978;2023-06-10T01:58:48;7.32;;;6.40;;
25437;SDS011;13364;49.084;9.978;2023-06-10T02:01:16;5.88;;;5.30;;
25437;SDS011;13364;49.084;9.978;2023-06-10T02:03:43;5.95;;;5.35;;
25437;SDS011;13364;49.084;9.978;2023-06-10T02:06:10;6.18;;;5.57;;
25437;SDS011;13364;49.084;9.978;2023-06-10T02:08:37;7.25;;;6.07;;
25437;SDS011;13364;49.084;9.978;2023-06-10T02:11:04;7.93;;;6.40;;
25437;SDS011;13364;49.084;9.978;2023-06-10T02:13:31;7.45;;;6.57;;
25437;SDS011;13364;49.084;9.978;2023-06-10T02:15:58;6.55;;;5.75;;
25437;SDS011;13364;49.084;9.978;2023-06-10T02:20:55;9.30;;;5.80;;
25437;SDS011;13364;49.084;9.978;2023-06-10T02:23:22;6.72;;;6.03;;
25437;SDS011;13364;49.084;9.978;2023-06-10T02:25:49;7.10;;;6.40;;
25437;SDS011;13364;49.084;9.978;2023-06-10T02:28:17;7.00;;;5.75;;
25437;SDS011;13364;49.084;9.978;2023-06-10T02:30:44;7.45;;;6.22;;
25437;SDS011;13364;49.084;9.978;2023-06-10T02:33:13;7.35;;;6.32;;
25437;SDS011;13364;49.084;9.978;2023-06-10T02:35:42;7.40;;;6.30;;
25437;SDS011;13364;49.084;9.978;2023-06-10T02:38:09;7.97;;;7.07;;
25437;SDS011;13364;49.084;9.978;2023-06-10T02:40:36;7.30;;;6.28;;
25437;SDS011;13364;49.084;9.978;2023-06-10T02:43:03;7.47;;;6.68;;
25437;SDS011;13364;49.084;9.978;2023-06-10T02:45:31;8.40;;;7.10;;
25437;SDS011;13364;49.084;9.978;2023-06-10T02:48:00;6.88;;;6.20;;
25437;SDS011;13364;49.084;9.978;2023-06-10T02:50:28;10.50;;;6.78;;
25437;SDS011;13364;49.084;9.978;2023-06-10T02:53:24;11.80;;;6.97;;
25437;SDS011;13364;49.084;9.978;2023-06-10T02:55:58;11.10;;;7.10;;
25437;SDS011;13364;49.084;9.978;2023-06-10T02:58:26;7.90;;;6.80;;
25437;SDS011;13364;49.084;9.978;2023-06-10T03:00:54;7.50;;;6.80;;
25437;SDS011;13364;49.084;9.978;2023-06-10T03:03:21;8.32;;;6.85;;
25437;SDS011;13364;49.084;9.978;2023-06-10T03:05:58;7.07;;;6.20;;
25437;SDS011;13364;49.084;9.978;2023-06-10T03:08:26;8.27;;;6.57;;
25437;SDS011;13364;49.084;9.978;2023-06-10T03:10:55;9.65;;;7.63;;
25437;SDS011;13364;49.084;9.978;2023-06-10T03:13:23;9.23;;;7.47;;
25437;SDS011;13364;49.084;9.978;2023-06-10T03:15:50;8.02;;;6.45;;
25437;SDS011;13364;49.084;9.978;2023-06-10T03:18:20;7.75;;;6.25;;
25437;SDS011;13364;49.084;9.978;2023-06-10T03:23:19;7.40;;;6.38;;
25437;SDS011;13364;49.084;9.978;2023-06-10T03:25:46;8.23;;;6.80;;
25437;SDS011;13364;49.084;9.978;2023-06-10T03:28:16;6.68;;;5.97;;
25437;SDS011;13364;49.084;9.978;2023-06-10T03:30:43;6.97;;;6.15;;
25437;SDS011;13364;49.084;9.978;2023-06-10T03:33:11;7.13;;;6.43;;
25437;SDS011;13364;49.084;9.978;2023-06-10T03:35:39;6.70;;;6.00;;
25437;SDS011;13364;49.084;9.978;2023-06-10T03:38:06;9.07;;;6.50;;
25437;SDS011;13364;49.084;9.978;2023-06-10T03:40:33;9.02;;;6.45;;
25437;SDS011;13364;49.084;9.978;2023-06-10T03:43:01;9.27;;;7.47;;
25437;SDS011;13364;49.084;9.978;2023-06-10T03:45:29;7.68;;;6.60;;
25437;SDS011;13364;49.084;9.978;2023-06-10T03:47:57;11.45;;;7.38;;
25437;SDS011;13364;49.084;9.978;2023-06-10T03:50:31;7.05;;;6.38;;
25437;SDS011;13364;49.084;9.978;2023-06-10T03:52:58;7.05;;;6.28;;
25437;SDS011;13364;49.084;9.978;2023-06-10T03:55:26;9.00;;;6.57;;
25437;SDS011;13364;49.084;9.978;2023-06-10T03:57:54;7.63;;;6.28;;
25437;SDS011;13364;49.084;9.978;2023-06-10T04:00:21;9.32;;;6.85;;
25437;SDS011;13364;49.084;9.978;2023-06-10T04:02:48;6.65;;;5.80;;
25437;SDS011;13364;49.084;9.978;2023-06-10T04:07:56;7.78;;;6.72;;
25437;SDS011;13364;49.084;9.978;2023-06-10T04:10:23;6.97;;;6.28;;
25437;SDS011;13364;49.084;9.978;2023-06-10T04:12:50;7.80;;;6.90;;
25437;SDS011;13364;49.084;9.978;2023-06-10T04:15:18;7.70;;;6.72;;
25437;SDS011;13364;49.084;9.978;2023-06-10T04:17:45;7.53;;;6.82;;
25437;SDS011;13364;49.084;9.978;2023-06-10T04:20:13;8.40;;;6.65;;
25437;SDS011;13364;49.084;9.978;2023-06-10T04:22:43;9.38;;;7.13;;
25437;SDS011;13364;49.084;9.978;2023-06-10T04:25:11;7.75;;;6.93;;
25437;SDS011;13364;49.084;9.978;2023-06-10T04:27:40;9.07;;;7.30;;
25437;SDS011;13364;49.084;9.978;2023-06-10T04:30:07;7.75;;;6.80;;
25437;SDS011;13364;49.084;9.978;2023-06-10T04:32:36;8.60;;;7.43;;
25437;SDS011;13364;49.084;9.978;2023-06-10T04:35:06;10.73;;;7.07;;
25437;SDS011;13364;49.084;9.978;2023-06-10T04:37:35;8.40;;;7.50;;
25437;SDS011;13364;49.084;9.978;2023-06-10T04:40:02;8.05;;;7.07;;
25437;SDS011;13364;49.084;9.978;2023-06-10T04:42:30;8.15;;;7.07;;
25437;SDS011;13364;49.084;9.978;2023-06-10T04:44:58;8.85;;;7.47;;
25437;SDS011;13364;49.084;9.978;2023-06-10T04:47:25;8.48;;;7.63;;
25437;SDS011;13364;49.084;9.978;2023-06-10T04:49:53;9.07;;;7.18;;
25437;SDS011;13364;49.084;9.978;2023-06-10T04:52:20;7.43;;;6.45;;
25437;SDS011;13364;49.084;9.978;2023-06-10T04:54:47;7.97;;;6.63;;
25437;SDS011;13364;49.084;9.978;2023-06-10T04:57:14;7.53;;;6.30;;
25437;SDS011;13364;49.084;9.978;2023-06-10T04:59:42;8.23;;;7.40;;
25437;SDS011;13364;49.084;9.978;2023-06-10T05:02:09;8.63;;;7.53;;
25437;SDS011;13364;49.084;9.978;2023-06-10T05:04:36;8.07;;;7.28;;
25437;SDS011;13364;49.084;9.978;2023-06-10T05:07:03;8.32;;;7.53;;
25437;SDS011;13364;49.084;9.978;2023-06-10T05:09:31;8.63;;;7.43;;
25437;SDS011;13364;49.084;9.978;2023-06-10T05:11:59;7.93;;;7.07;;
25437;SDS011;13364;49.084;9.978;2023-06-10T05:14:26;9.88;;;7.32;;
25437;SDS011;13364;49.084;9.978;2023-06-10T05:16:54;8.35;;;7.32;;
25437;SDS011;13364;49.084;9.978;2023-06-10T05:19:20;8.75;;;7.72;;
25437;SDS011;13364;49.084;9.978;2023-06-10T05:21:48;9.00;;;6.65;;
25437;SDS011;13364;49.084;9.978;2023-06-10T05:24:15;8.57;;;7.45;;
25437;SDS011;13364;49.084;9.978;2023-06-10T05:26:42;8.93;;;8.00;;
25437;SDS011;13364;49.084;9.978;2023-06-10T05:29:09;8.38;;;7.55;;
25437;SDS011;13364;49.084;9.978;2023-06-10T05:31:36;8.90;;;7.40;;
25437;SDS011;13364;49.084;9.978;2023-06-10T05:34:03;9.13;;;7.53;;
25437;SDS011;13364;49.084;9.978;2023-06-10T05:36:31;8.52;;;7.63;;
25437;SDS011;13364;49.084;9.978;2023-06-10T05:38:58;8.93;;;7.95;;
25437;SDS011;13364;49.084;9.978;2023-06-10T05:41:25;8.68;;;7.78;;
25437;SDS011;13364;49.084;9.978;2023-06-10T05:43:52;8.90;;;7.40;;
25437;SDS011;13364;49.084;9.978;2023-06-10T05:46:20;10.52;;;7.72;;
25437;SDS011;13364;49.084;9.978;2023-06-10T05:48:47;9.35;;;7.47;;
25437;SDS011;13364;49.084;9.978;2023-06-10T05:51:14;8.70;;;7.80;;
25437;SDS011;13364;49.084;9.978;2023-06-10T05:53:41;8.32;;;7.35;;
25437;SDS011;13364;49.084;9.978;2023-06-10T05:56:08;8.50;;;7.65;;
25437;SDS011;13364;49.084;9.978;2023-06-10T05:58:35;8.50;;;7.60;;
25437;SDS011;13364;49.084;9.978;2023-06-10T06:01:02;11.73;;;7.72;;
25437;SDS011;13364;49.084;9.978;2023-06-10T06:03:29;8.70;;;7.40;;
25437;SDS011;13364;49.084;9.978;2023-06-10T06:05:57;9.50;;;8.18;;
25437;SDS011;13364;49.084;9.978;2023-06-10T06:08:24;8.52;;;7.68;;
25437;SDS011;13364;49.084;9.978;2023-06-10T06:10:51;8.65;;;7.75;;
25437;SDS011;13364;49.084;9.978;2023-06-10T06:13:18;9.48;;;7.93;;
25437;SDS011;13364;49.084;9.978;2023-06-10T06:15:45;8.70;;;7.50;;
25437;SDS011;13364;49.084;9.978;2023-06-10T06:18:12;10.07;;;8.10;;
25437;SDS011;13364;49.084;9.978;2023-06-10T06:20:39;10.20;;;8.30;;
25437;SDS011;13364;49.084;9.978;2023-06-10T06:23:07;9.65;;;8.63;;
25437;SDS011;13364;49.084;9.978;2023-06-10T06:25:36;9.20;;;8.20;;
25437;SDS011;13364;49.084;9.978;2023-06-10T06:28:09;10.65;;;9.00;;
25437;SDS011;13364;49.084;9.978;2023-06-10T06:30:36;10.02;;;8.02;;
25437;SDS011;13364;49.084;9.978;2023-06-10T06:33:03;8.40;;;7.53;;
25437;SDS011;13364;49.084;9.978;2023-06-10T06:35:32;9.35;;;7.65;;
25437;SDS011;13364;49.084;9.978;2023-06-10T06:38:00;10.73;;;7.85;;
25437;SDS011;13364;49.084;9.978;2023-06-10T06:40:28;8.30;;;7.50;;
25437;SDS011;13364;49.084;9.978;2023-06-10T06:42:56;9.88;;;7.90;;
25437;SDS011;13364;49.084;9.978;2023-06-10T06:45:56;8.38;;;7.57;;
25437;SDS011;13364;49.084;9.978;2023-06-10T06:48:23;12.63;;;8.00;;
25437;SDS011;13364;49.084;9.978;2023-06-10T06:50:51;8.65;;;7.80;;
25437;SDS011;13364;49.084;9.978;2023-06-10T06:53:18;8.48;;;7.63;;
25437;SDS011;13364;49.084;9.978;2023-06-10T06:55:45;10.18;;;7.85;;
25437;SDS011;13364;49.084;9.978;2023-06-10T06:58:12;7.78;;;6.97;;
25437;SDS011;13364;49.084;9.978;2023-06-10T07:00:39;8.73;;;7.85;;
25437;SDS011;13364;49.084;9.978;2023-06-10T07:03:06;8.43;;;7.43;;
25437;SDS011;13364;49.084;9.978;2023-06-10T07:05:33;9.10;;;7.55;;
25437;SDS011;13364;49.084;9.978;2023-06-10T07:08:00;7.68;;;6.70;;
25437;SDS011;13364;49.084;9.978;2023-06-10T07:10:27;9.32;;;7.38;;
25437;SDS011;13364;49.084;9.978;2023-06-10T07:12:55;8.75;;;7.60;;
25437;SDS011;13364;49.084;9.978;2023-06-10T07:15:22;8.18;;;7.40;;
25437;SDS011;13364;49.084;9.978;2023-06-10T07:17:49;8.25;;;7.45;;
25437;SDS011;13364;49.084;9.978;2023-06-10T07:20:17;8.80;;;7.15;;
25437;SDS011;13364;49.084;9.978;2023-06-10T07:22:44;8.25;;;7.45;;
25437;SDS011;13364;49.084;9.978;2023-06-10T07:25:11;7.60;;;6.90;;
25437;SDS011;13364;49.084;9.978;2023-06-10T07:27:38;7.95;;;6.78;;
25437;SDS011;13364;49.084;9.978;2023-06-10T07:30:06;7.38;;;6.57;;
25437;SDS011;13364;49.084;9.978;2023-06-10T07:32:34;8.53;;;6.63;;
25437;SDS011;13364;49.084;9.978;2023-06-10T07:35:02;8.43;;;6.65;;
25437;SDS011;13364;49.084;9.978;2023-06-10T07:37:29;7.78;;;6.95;;
25437;SDS011;13364;49.084;9.978;2023-06-10T07:39:56;7.70;;;6.85;;
25437;SDS011;13364;49.084;9.978;2023-06-10T07:42:23;7.57;;;6.78;;
25437;SDS011;13364;49.084;9.978;2023-06-10T07:44:50;7.65;;;6.95;;
25437;SDS011;13364;49.084;9.978;2023-06-10T07:47:17;7.68;;;6.88;;
25437;SDS011;13364;49.084;9.978;2023-06-10T07:49:45;7.28;;;6.57;;
25437;SDS011;13364;49.084;9.978;2023-06-10T07:52:12;6.70;;;6.10;;
25437;SDS011;13364;49.084;9.978;2023-06-10T07:54:39;7.57;;;6.72;;
25437;SDS011;13364;49.084;9.978;2023-06-10T07:57:06;9.05;;;6.53;;
25437;SDS011;13364;49.084;9.978;2023-06-10T07:59:33;7.40;;;6.70;;
25437;SDS011;13364;49.084;9.978;2023-06-10T08:02:00;6.80;;;6.10;;
25437;SDS011;13364;49.084;9.978;2023-06-10T08:04:27;7.00;;;5.97;;
25437;SDS011;13364;49.084;9.978;2023-06-10T08:06:54;7.53;;;6.38;;
25437;SDS011;13364;49.084;9.978;2023-06-10T08:09:22;9.38;;;7.00;;
25437;SDS011;13364;49.084;9.978;2023-06-10T08:11:49;7.25;;;6.55;;
25437;SDS011;13364;49.084;9.978;2023-06-10T08:14:16;7.07;;;6.38;;
25437;SDS011;13364;49.084;9.978;2023-06-10T08:16:44;7.35;;;6.63;;
25437;SDS011;13364;49.084;9.978;2023-06-10T08:19:11;8.27;;;6.32;;
25437;SDS011;13364;49.084;9.978;2023-06-10T08:21:38;6.60;;;6.00;;
25437;SDS011;13364;49.084;9.978;2023-06-10T08:24:06;6.65;;;5.97;;
25437;SDS011;13364;49.084;9.978;2023-06-10T08:26:34;6.85;;;6.15;;
25437;SDS011;13364;49.084;9.978;2023-06-10T08:29:01;6.63;;;6.07;;
25437;SDS011;13364;49.084;9.978;2023-06-10T08:31:28;6.78;;;6.03;;
25437;SDS011;13364;49.084;9.978;2023-06-10T08:33:55;7.93;;;6.20;;
25437;SDS011;13364;49.084;9.978;2023-06-10T08:36:22;6.20;;;5.55;;
25437;SDS011;13364;49.084;9.978;2023-06-10T08:38:49;6.45;;;5.85;;
25437;SDS011;13364;49.084;9.978;2023-06-10T08:41:17;6.47;;;5.82;;
25437;SDS011;13364;49.084;9.978;2023-06-10T08:43:52;6.45;;;5.85;;
25437;SDS011;13364;49.084;9.978;2023-06-10T08:46:27;8.45;;;6.13;;
25437;SDS011;13364;49.084;9.978;2023-06-10T08:48:56;6.75;;;6.15;;
25437;SDS011;13364;49.084;9.978;2023-06-10T08:51:29;6.50;;;5.75;;
25437;SDS011;13364;49.084;9.978;2023-06-10T08:54:00;8.10;;;5.75;;
25437;SDS011;13364;49.084;9.978;2023-06-10T08:56:30;6.20;;;5.60;;
25437;SDS011;13364;49.084;9.978;2023-06-10T08:58:59;6.53;;;5.93;;
25437;SDS011;13364;49.084;9.978;2023-06-10T09:01:28;5.90;;;5.40;;
25437;SDS011;13364;49.084;9.978;2023-06-10T09:03:57;6.53;;;6.00;;
25437;SDS011;13364;49.084;9.978;2023-06-10T09:06:26;7.35;;;6.10;;
25437;SDS011;13364;49.084;9.978;2023-06-10T09:08:53;7.22;;;6.30;;
25437;SDS011;13364;49.084;9.978;2023-06-10T09:11:20;6.88;;;6.10;;
25437;SDS011;13364;49.084;9.978;2023-06-10T09:13:47;5.55;;;5.05;;
25437;SDS011;13364;49.084;9.978;2023-06-10T09:16:14;6.68;;;5.63;;
25437;SDS011;13364;49.084;9.978;2023-06-10T09:18:42;7.18;;;5.93;;
25437;SDS011;13364;49.084;9.978;2023-06-10T09:21:10;7.07;;;5.40;;
25437;SDS011;13364;49.084;9.978;2023-06-10T09:23:37;5.82;;;5.22;;
25437;SDS011;13364;49.084;9.978;2023-06-10T09:26:07;5.78;;;5.20;;
25437;SDS011;13364;49.084;9.978;2023-06-10T09:28:36;5.63;;;5.18;;
25437;SDS011;13364;49.084;9.978;2023-06-10T09:31:03;6.32;;;5.72;;
25437;SDS011;13364;49.084;9.978;2023-06-10T09:33:32;5.10;;;4.60;;
25437;SDS011;13364;49.084;9.978;2023-06-10T09:36:01;5.53;;;5.03;;
25437;SDS011;13364;49.084;9.978;2023-06-10T09:38:29;5.70;;;4.55;;
25437;SDS011;13364;49.084;9.978;2023-06-10T09:40:58;5.47;;;5.03;;
25437;SDS011;13364;49.084;9.978;2023-06-10T09:43:44;5.20;;;4.78;;
25437;SDS011;13364;49.084;9.978;2023-06-10T09:46:19;5.32;;;4.82;;
25437;SDS011;13364;49.084;9.978;2023-06-10T09:48:47;5.10;;;4.60;;
25437;SDS011;13364;49.084;9.978;2023-06-10T09:51:16;6.38;;;4.97;;
25437;SDS011;13364;49.084;9.978;2023-06-10T09:53:47;5.47;;;4.68;;
25437;SDS011;13364;49.084;9.978;2023-06-10T09:56:17;6.25;;;4.40;;
25437;SDS011;13364;49.084;9.978;2023-06-10T09:58:45;5.85;;;4.93;;
25437;SDS011;13364;49.084;9.978;2023-06-10T10:01:14;5.80;;;4.72;;
25437;SDS011;13364;49.084;9.978;2023-06-10T10:06:17;4.90;;;4.50;;
25437;SDS011;13364;49.084;9.978;2023-06-10T10:08:46;4.75;;;4.38;;
25437;SDS011;13364;49.084;9.978;2023-06-10T10:11:14;4.80;;;4.40;;
25437;SDS011;13364;49.084;9.978;2023-06-10T10:13:45;4.65;;;4.25;;
25437;SDS011;13364;49.084;9.978;2023-06-10T10:16:18;5.30;;;4.80;;
25437;SDS011;13364;49.084;9.978;2023-06-10T10:18:54;5.35;;;4.68;;
25437;SDS011;13364;49.084;9.978;2023-06-10T10:21:26;5.15;;;4.68;;
25437;SDS011;13364;49.084;9.978;2023-06-10T10:24:08;5.47;;;4.97;;
25437;SDS011;13364;49.084;9.978;2023-06-10T10:26:40;6.10;;;4.50;;
25437;SDS011;13364;49.084;9.978;2023-06-10T10:31:44;5.13;;;4.65;;
25437;SDS011;13364;49.084;9.978;2023-06-10T10:34:18;4.68;;;4.28;;
25437;SDS011;13364;49.084;9.978;2023-06-10T10:36:51;5.22;;;4.60;;
25437;SDS011;13364;49.084;9.978;2023-06-10T10:39:18;6.38;;;4.65;;
25437;SDS011;13364;49.084;9.978;2023-06-10T10:41:46;5.32;;;4.60;;
25437;SDS011;13364;49.084;9.978;2023-06-10T10:44:14;6.22;;;4.82;;
25437;SDS011;13364;49.084;9.978;2023-06-10T10:46:49;4.85;;;4.10;;
25437;SDS011;13364;49.084;9.978;2023-06-10T10:49:17;5.85;;;4.35;;
25437;SDS011;13364;49.084;9.978;2023-06-10T10:51:58;4.45;;;3.70;;
25437;SDS011;13364;49.084;9.978;2023-06-10T10:54:34;3.90;;;3.50;;
25437;SDS011;13364;49.084;9.978;2023-06-10T10:59:57;4.20;;;3.80;;
25437;SDS011;13364;49.084;9.978;2023-06-10T11:02:40;4.13;;;3.80;;
25437;SDS011;13364;49.084;9.978;2023-06-10T11:05:16;4.15;;;3.78;;
25437;SDS011;13364;49.084;9.978;2023-06-10T11:07:53;5.15;;;3.65;;
25437;SDS011;13364;49.084;9.978;2023-06-10T11:10:34;4.40;;;4.00;;
25437;SDS011;13364;49.084;9.978;2023-06-10T11:13:22;5.30;;;4.80;;
25437;SDS011;13364;49.084;9.978;2023-06-10T11:15:49;5.85;;;4.70;;
25437;SDS011;13364;49.084;9.978;2023-06-10T11:18:27;4.78;;;4.38;;
25437;SDS011;13364;49.084;9.978;2023-06-10T11:21:02;4.85;;;4.45;;
25437;SDS011;13364;49.084;9.978;2023-06-10T11:31:25;5.63;;;4.88;;
25437;SDS011;13364;49.084;9.978;2023-06-10T11:34:01;5.47;;;4.97;;
25437;SDS011;13364;49.084;9.978;2023-06-10T11:36:33;4.93;;;4.53;;
25437;SDS011;13364;49.084;9.978;2023-06-10T11:39:04;5.30;;;4.55;;
25437;SDS011;13364;49.084;9.978;2023-06-10T11:41:32;5.20;;;4.80;;
25437;SDS011;13364;49.084;9.978;2023-06-10T11:44:01;5.20;;;4.70;;
25437;SDS011;13364;49.084;9.978;2023-06-10T11:46:30;4.75;;;4.32;;
25437;SDS011;13364;49.084;9.978;2023-06-10T11:48:58;5.07;;;4.68;;
25437;SDS011;13364;49.084;9.978;2023-06-10T11:51:27;4.95;;;4.55;;
25437;SDS011;13364;49.084;9.978;2023-06-10T11:53:55;4.35;;;3.95;;
25437;SDS011;13364;49.084;9.978;2023-06-10T11:56:23;4.43;;;4.13;;
25437;SDS011;13364;49.084;9.978;2023-06-10T12:01:21;4.70;;;4.30;;
25437;SDS011;13364;49.084;9.978;2023-06-10T12:04:04;4.90;;;4.40;;
25437;SDS011;13364;49.084;9.978;2023-06-10T12:09:14;5.05;;;4.43;;
25437;SDS011;13364;49.084;9.978;2023-06-10T12:19:57;5.03;;;4.47;;
25437;SDS011;13364;49.084;9.978;2023-06-10T12:22:25;4.53;;;4.22;;
25437;SDS011;13364;49.084;9.978;2023-06-10T12:24:59;5.15;;;4.75;;
25437;SDS011;13364;49.084;9.978;2023-06-10T12:27:28;4.70;;;4.32;;
25437;SDS011;13364;49.084;9.978;2023-06-10T12:29:57;4.63;;;4.23;;
25437;SDS011;13364;49.084;9.978;2023-06-10T12:35:08;5.40;;;4.90;;
25437;SDS011;13364;49.084;9.978;2023-06-10T12:37:38;5.20;;;4.70;;
25437;SDS011;13364;49.084;9.978;2023-06-10T12:40:09;4.60;;;4.07;;
25437;SDS011;13364;49.084;9.978;2023-06-10T12:42:37;5.25;;;4.50;;
25437;SDS011;13364;49.084;9.978;2023-06-10T12:45:05;5.68;;;4.57;;
25437;SDS011;13364;49.084;9.978;2023-06-10T12:47:36;5.50;;;4.78;;
25437;SDS011;13364;49.084;9.978;2023-06-10T12:50:08;6.07;;;5.57;;
25437;SDS011;13364;49.084;9.978;2023-06-10T12:52:35;6.13;;;5.53;;
25437;SDS011;13364;49.084;9.978;2023-06-10T12:55:03;5.13;;;4.65;;
25437;SDS011;13364;49.084;9.978;2023-06-10T12:57:30;4.82;;;4.50;;
25437;SDS011;13364;49.084;9.978;2023-06-10T12:59:58;4.72;;;4.32;;
25437;SDS011;13364;49.084;9.978;2023-06-10T13:02:30;4.97;;;4.57;;
25437;SDS011;13364;49.084;9.978;2023-06-10T13:04:58;4.85;;;4.45;;
25437;SDS011;13364;49.084;9.978;2023-06-10T13:07:25;4.88;;;4.47;;
25437;SDS011;13364;49.084;9.978;2023-06-10T13:09:53;6.35;;;4.65;;
25437;SDS011;13364;49.084;9.978;2023-06-10T13:12:20;5.82;;;4.82;;
25437;SDS011;13364;49.084;9.978;2023-06-10T13:15:03;5.45;;;4.40;;
25437;SDS011;13364;49.084;9.978;2023-06-10T13:17:31;4.70;;;4.30;;
25437;SDS011;13364;49.084;9.978;2023-06-10T13:20:00;4.80;;;4.28;;
25437;SDS011;13364;49.084;9.978;2023-06-10T13:22:34;5.32;;;4.90;;
25437;SDS011;13364;49.084;9.978;2023-06-10T13:25:03;4.35;;;3.95;;
25437;SDS011;13364;49.084;9.978;2023-06-10T13:27:34;4.97;;;4.47;;
25437;SDS011;13364;49.084;9.978;2023-06-10T13:30:05;4.88;;;4.47;;
25437;SDS011;13364;49.084;9.978;2023-06-10T13:32:33;5.00;;;4.50;;
25437;SDS011;13364;49.084;9.978;2023-06-10T13:35:00;5.45;;;4.22;;
25437;SDS011;13364;49.084;9.978;2023-06-10T13:37:32;5.93;;;4.47;;
25437;SDS011;13364;49.084;9.978;2023-06-10T13:40:00;4.70;;;4.30;;
25437;SDS011;13364;49.084;9.978;2023-06-10T13:42:29;6.33;;;4.93;;
25437;SDS011;13364;49.084;9.978;2023-06-10T13:44:56;5.13;;;4.07;;
25437;SDS011;13364;49.084;9.978;2023-06-10T13:47:23;4.75;;;4.20;;
25437;SDS011;13364;49.084;9.978;2023-06-10T13:49:51;4.63;;;4.22;;
25437;SDS011;13364;49.084;9.978;2023-06-10T13:52:18;4.68;;;4.28;;
25437;SDS011;13364;49.084;9.978;2023-06-10T13:54:45;5.05;;;4.55;;
25437;SDS011;13364;49.084;9.978;2023-06-10T13:57:12;4.80;;;4.40;;
25437;SDS011;13364;49.084;9.978;2023-06-10T13:59:39;4.00;;;3.70;;
25437;SDS011;13364;49.084;9.978;2023-06-10T14:02:06;5.60;;;4.25;;
25437;SDS011;13364;49.084;9.978;2023-06-10T14:04:33;4.35;;;3.95;;
25437;SDS011;13364;49.084;9.978;2023-06-10T14:07:00;5.22;;;4.15;;
25437;SDS011;13364;49.084;9.978;2023-06-10T14:09:27;4.30;;;3.90;;
25437;SDS011;13364;49.084;9.978;2023-06-10T14:11:55;4.15;;;3.75;;
25437;SDS011;13364;49.084;9.978;2023-06-10T14:14:22;4.50;;;4.10;;
25437;SDS011;13364;49.084;9.978;2023-06-10T14:16:49;4.22;;;3.83;;
25437;SDS011;13364;49.084;9.978;2023-06-10T14:19:16;3.97;;;3.65;;
25437;SDS011;13364;49.084;9.978;2023-06-10T14:21:43;5.50;;;4.47;;
25437;SDS011;13364;49.084;9.978;2023-06-10T14:24:10;4.38;;;4.00;;
25437;SDS011;13364;49.084;9.978;2023-06-10T14:26:38;3.90;;;3.47;;
25437;SDS011;13364;49.084;9.978;2023-06-10T14:29:05;4.50;;;4.00;;
25437;SDS011;13364;49.084;9.978;2023-06-10T14:31:33;4.80;;;4.40;;
25437;SDS011;13364;49.084;9.978;2023-06-10T14:34:00;3.78;;;3.47;;
25437;SDS011;13364;49.084;9.978;2023-06-10T14:36:27;4.68;;;3.90;;
25437;SDS011;13364;49.084;9.978;2023-06-10T14:38:54;4.07;;;3.78;;
25437;SDS011;13364;49.084;9.978;2023-06-10T14:41:23;4.03;;;3.73;;
25437;SDS011;13364;49.084;9.978;2023-06-10T14:43:51;4.93;;;4.22;;
25437;SDS011;13364;49.084;9.978;2023-06-10T14:46:18;4.10;;;3.80;;
25437;SDS011;13364;49.084;9.978;2023-06-10T14:48:47;3.88;;;3.50;;
25437;SDS011;13364;49.084;9.978;2023-06-10T14:51:15;3.80;;;3.50;;
25437;SDS011;13364;49.084;9.978;2023-06-10T14:53:42;3.85;;;3.55;;
25437;SDS011;13364;49.084;9.978;2023-06-10T14:56:09;4.32;;;3.92;;
25437;SDS011;13364;49.084;9.978;2023-06-10T14:58:36;4.28;;;3.97;;
25437;SDS011;13364;49.084;9.978;2023-06-10T15:01:03;4.47;;;3.70;;
25437;SDS011;13364;49.084;9.978;2023-06-10T15:03:30;4.13;;;3.83;;
25437;SDS011;13364;49.084;9.978;2023-06-10T15:05:58;4.47;;;4.07;;
25437;SDS011;13364;49.084;9.978;2023-06-10T15:08:26;4.13;;;3.83;;
25437;SDS011;13364;49.084;9.978;2023-06-10T15:10:56;5.25;;;4.80;;
25437;SDS011;13364;49.084;9.978;2023-06-10T15:13:23;4.95;;;4.55;;
25437;SDS011;13364;49.084;9.978;2023-06-10T15:15:51;5.07;;;4.57;;
25437;SDS011;13364;49.084;9.978;2023-06-10T15:18:18;4.88;;;4.38;;
25437;SDS011;13364;49.084;9.978;2023-06-10T15:20:45;4.97;;;4.57;;
25437;SDS011;13364;49.084;9.978;2023-06-10T15:23:12;5.25;;;4.47;;
25437;SDS011;13364;49.084;9.978;2023-06-10T15:25:39;4.72;;;4.32;;
25437;SDS011;13364;49.084;9.978;2023-06-10T15:28:07;5.50;;;5.10;;
25437;SDS011;13364;49.084;9.978;2023-06-10T15:30:34;5.47;;;5.00;;
25437;SDS011;13364;49.084;9.978;2023-06-10T15:33:03;4.97;;;4.57;;
25437;SDS011;13364;49.084;9.978;2023-06-10T15:35:33;5.13;;;4.70;;
25437;SDS011;13364;49.084;9.978;2023-06-10T15:38:00;4.30;;;4.00;;
25437;SDS011;13364;49.084;9.978;2023-06-10T15:40:27;5.00;;;4.50;;
25437;SDS011;13364;49.084;9.978;2023-06-10T15:42:54;4.60;;;4.20;;
25437;SDS011;13364;49.084;9.978;2023-06-10T15:45:21;5.00;;;4.60;;
25437;SDS011;13364;49.084;9.978;2023-06-10T15:47:48;5.60;;;5.10;;